Time;durP1;ratioP1;P1;durP2;ratioP2;P2;SDS_P1;SDS_P2;PMS_P1;PMS_P2;Temp;Humidity;BMP_temperature;BMP_pressure;BME280_temperature;BME280_humidity;BME280_pressure;Samples;Min_cycle;Max_cycle;Signal;HPM_P1;HPM_P2
2022/06/18 00:01:52;;;;;;;22.00;7.90;;;;;;;;;;5052312;28;20514;-75
2022/06/18 00:04:20;;;;;;;20.97;7.20;;;;;;;;;;5052416;28;20471;-76
2022/06/18 00:06:51;;;;;;;22.50;6.70;;;;;;;;;;5052402;28;20870;-75
2022/06/18 00:09:20;;;;;;;19.83;6.40;;;;;;;;;;5051890;28;20779;-76
2022/06/18 00:14:35;;;;;;;21.50;6.60;;;;;;;;;;5052209;28;20423;-76
2022/06/18 00:17:03;;;;;;;32.20;8.77;;;;;;;;;;5052366;28;20448;-76
2022/06/18 00:19:30;;;;;;;25.97;7.50;;;;;;;;;;5051805;28;20447;-75
2022/06/18 00:21:58;;;;;;;19.47;6.50;;;;;;;;;;5052151;28;20908;-75
2022/06/18 00:24:25;;;;;;;20.23;6.70;;;;;;;;;;5052059;28;20439;-76
2022/06/18 00:26:52;;;;;;;18.10;6.67;;;;;;;;;;5051428;28;20450;-76
2022/06/18 00:29:20;;;;;;;22.20;6.60;;;;;;;;;;5052123;28;20483;-76
2022/06/18 00:31:49;;;;;;;24.23;7.90;;;;;;;;;;5051728;28;20443;-76
2022/06/18 00:34:17;;;;;;;19.57;6.23;;;;;;;;;;5051613;28;20459;-77
2022/06/18 00:36:45;;;;;;;17.60;6.47;;;;;;;;;;5051750;28;20938;-76
2022/06/18 00:39:15;;;;;;;22.03;6.30;;;;;;;;;;5051556;28;20498;-75
2022/06/18 00:41:43;;;;;;;28.70;8.53;;;;;;;;;;5051569;28;20484;-75
2022/06/18 00:44:16;;;;;;;19.73;6.20;;;;;;;;;;5051603;28;20444;-76
2022/06/18 00:46:45;;;;;;;19.67;7.30;;;;;;;;;;5052089;28;20432;-76
2022/06/18 00:49:20;;;;;;;19.77;6.03;;;;;;;;;;5051534;28;20454;-76
2022/06/18 00:51:49;;;;;;;24.87;7.80;;;;;;;;;;5051520;28;20458;-76
2022/06/18 00:54:20;;;;;;;20.10;6.70;;;;;;;;;;5051499;28;20461;-75
2022/06/18 00:56:51;;;;;;;19.23;7.63;;;;;;;;;;5051846;28;20455;-76
2022/06/18 00:59:22;;;;;;;19.37;6.47;;;;;;;;;;5051537;28;20805;-76
2022/06/18 01:01:50;;;;;;;21.40;6.87;;;;;;;;;;5051292;28;20577;-76
2022/06/18 01:04:26;;;;;;;18.43;5.73;;;;;;;;;;5051573;28;20455;-75
2022/06/18 01:06:56;;;;;;;19.80;6.70;;;;;;;;;;5051655;28;20825;-76
2022/06/18 01:09:24;;;;;;;19.30;6.50;;;;;;;;;;5051675;28;20436;-76
2022/06/18 01:11:51;;;;;;;23.83;5.90;;;;;;;;;;5051148;28;20493;-76
2022/06/18 01:14:19;;;;;;;20.20;6.40;;;;;;;;;;5051517;28;20436;-75
2022/06/18 01:16:47;;;;;;;21.77;6.77;;;;;;;;;;5051104;28;20452;-75
2022/06/18 01:19:18;;;;;;;17.43;6.77;;;;;;;;;;5051459;28;20447;-76
2022/06/18 01:21:51;;;;;;;20.50;5.90;;;;;;;;;;5051241;28;20498;-76
2022/06/18 01:24:21;;;;;;;17.20;6.40;;;;;;;;;;5051256;28;20451;-76
2022/06/18 01:26:49;;;;;;;19.43;6.40;;;;;;;;;;5051166;28;20447;-75
2022/06/18 01:29:17;;;;;;;17.10;6.00;;;;;;;;;;5051092;28;20805;-76
2022/06/18 01:31:45;;;;;;;15.60;5.17;;;;;;;;;;5050898;28;20443;-75
2022/06/18 01:34:13;;;;;;;16.70;5.73;;;;;;;;;;5051108;28;20964;-75
2022/06/18 01:36:40;;;;;;;17.70;5.87;;;;;;;;;;5051091;28;20523;-74
2022/06/18 01:39:11;;;;;;;21.80;5.67;;;;;;;;;;5054082;28;20957;-74
2022/06/18 01:41:52;;;;;;;18.87;6.27;;;;;;;;;;5054411;28;20483;-74
2022/06/18 01:44:22;;;;;;;17.10;5.47;;;;;;;;;;5055628;28;20454;-75
2022/06/18 01:46:50;;;;;;;16.20;5.40;;;;;;;;;;5054747;28;20443;-75
2022/06/18 01:49:27;;;;;;;15.30;5.10;;;;;;;;;;5054723;28;20508;-75
2022/06/18 01:51:55;;;;;;;19.93;5.73;;;;;;;;;;5054452;28;20447;-75
2022/06/18 01:54:24;;;;;;;17.50;4.87;;;;;;;;;;5054565;28;20446;-76
2022/06/18 01:56:56;;;;;;;17.67;6.27;;;;;;;;;;5054822;28;20458;-76
2022/06/18 01:59:25;;;;;;;21.53;5.43;;;;;;;;;;5054784;28;20448;-75
2022/06/18 02:01:53;;;;;;;16.43;5.33;;;;;;;;;;5054146;28;20481;-75
2022/06/18 02:04:21;;;;;;;15.17;4.77;;;;;;;;;;5054247;28;20460;-74
2022/06/18 02:06:50;;;;;;;17.07;4.70;;;;;;;;;;5054285;28;20447;-75
2022/06/18 02:09:28;;;;;;;19.10;5.43;;;;;;;;;;5054227;28;20441;-75
2022/06/18 02:11:58;;;;;;;15.53;5.40;;;;;;;;;;5054539;28;21043;-75
2022/06/18 02:14:27;;;;;;;17.83;5.53;;;;;;;;;;5054592;28;20828;-75
2022/06/18 02:16:56;;;;;;;19.10;5.27;;;;;;;;;;5054205;28;20448;-74
2022/06/18 02:19:23;;;;;;;16.00;4.97;;;;;;;;;;5054205;28;20444;-75
2022/06/18 02:21:52;;;;;;;16.13;4.77;;;;;;;;;;5053844;28;20487;-75
2022/06/18 02:24:21;;;;;;;23.07;5.67;;;;;;;;;;5054241;28;20879;-75
2022/06/18 02:26:49;;;;;;;16.33;4.90;;;;;;;;;;5054153;28;20447;-75
2022/06/18 02:29:20;;;;;;;16.00;5.10;;;;;;;;;;5054082;28;21005;-75
2022/06/18 02:31:48;;;;;;;17.20;5.80;;;;;;;;;;5053704;28;20443;-76
2022/06/18 02:34:17;;;;;;;16.20;5.50;;;;;;;;;;5054122;28;20436;-76
2022/06/18 02:36:44;;;;;;;17.33;5.17;;;;;;;;;;5054003;28;20439;-76
2022/06/18 02:39:15;;;;;;;18.80;5.33;;;;;;;;;;5054030;28;20440;-75
2022/06/18 02:41:44;;;;;;;18.97;6.03;;;;;;;;;;5053727;28;20483;-76
2022/06/18 02:44:12;;;;;;;15.80;5.47;;;;;;;;;;5053803;28;20467;-75
2022/06/18 02:46:42;;;;;;;18.43;5.70;;;;;;;;;;5053755;28;20444;-75
2022/06/18 02:49:11;;;;;;;23.07;7.40;;;;;;;;;;5053345;28;20467;-74
2022/06/18 02:51:38;;;;;;;17.70;5.60;;;;;;;;;;5053761;28;20467;-74
2022/06/18 02:54:06;;;;;;;23.70;5.90;;;;;;;;;;5053751;28;20440;-75
2022/06/18 02:56:34;;;;;;;23.70;6.70;;;;;;;;;;5053389;28;20506;-74
2022/06/18 02:59:05;;;;;;;22.23;6.30;;;;;;;;;;5053487;28;20443;-75
2022/06/18 03:01:33;;;;;;;20.80;6.50;;;;;;;;;;5053113;28;21161;-75
2022/06/18 03:04:03;;;;;;;18.87;5.60;;;;;;;;;;5053327;28;20476;-76
2022/06/18 03:06:33;;;;;;;19.17;6.27;;;;;;;;;;5053340;28;20494;-76
2022/06/18 03:09:00;;;;;;;18.07;6.00;;;;;;;;;;5053217;28;20455;-76
2022/06/18 03:14:15;;;;;;;23.83;5.20;;;;;;;;;;5053242;28;20434;-75
2022/06/18 03:16:43;;;;;;;19.07;6.90;;;;;;;;;;5053066;28;20432;-77
2022/06/18 03:19:19;;;;;;;19.20;6.37;;;;;;;;;;5053306;28;20448;-76
2022/06/18 03:21:48;;;;;;;21.80;6.33;;;;;;;;;;5052975;28;20502;-76
2022/06/18 03:24:15;;;;;;;23.60;7.20;;;;;;;;;;5053085;28;20440;-76
2022/06/18 03:26:42;;;;;;;16.30;5.43;;;;;;;;;;5053087;28;20440;-76
2022/06/18 03:29:10;;;;;;;18.83;5.63;;;;;;;;;;5053048;28;20458;-76
2022/06/18 03:31:38;;;;;;;22.80;8.90;;;;;;;;;;5052589;28;20811;-76
2022/06/18 03:34:05;;;;;;;16.77;5.80;;;;;;;;;;5052786;28;20443;-75
2022/06/18 03:36:35;;;;;;;17.23;5.90;;;;;;;;;;5053373;28;20447;-76
2022/06/18 03:39:02;;;;;;;17.10;5.80;;;;;;;;;;5053095;28;20811;-76
2022/06/18 03:41:30;;;;;;;18.80;6.07;;;;;;;;;;5053035;28;20483;-76
2022/06/18 03:43:57;;;;;;;19.20;6.80;;;;;;;;;;5052700;28;20443;-76
2022/06/18 03:46:25;;;;;;;19.13;6.23;;;;;;;;;;5052428;28;20444;-77
2022/06/18 03:48:53;;;;;;;23.37;6.93;;;;;;;;;;5051962;28;20451;-76
2022/06/18 03:51:22;;;;;;;21.43;6.63;;;;;;;;;;5052375;28;20441;-76
2022/06/18 03:53:51;;;;;;;23.13;6.67;;;;;;;;;;5051905;28;20531;-76
2022/06/18 03:56:20;;;;;;;22.60;6.70;;;;;;;;;;5052177;28;20436;-76
2022/06/18 03:58:48;;;;;;;17.90;5.47;;;;;;;;;;5052254;28;20436;-75
2022/06/18 04:01:18;;;;;;;18.45;6.50;;;;;;;;;;5051644;28;20458;-75
2022/06/18 04:03:45;;;;;;;16.50;6.13;;;;;;;;;;5051676;28;20494;-75
2022/06/18 04:06:14;;;;;;;19.90;6.53;;;;;;;;;;5052215;28;20443;-82
2022/06/18 04:08:42;;;;;;;22.33;6.53;;;;;;;;;;5048280;28;20480;-77
2022/06/18 04:11:11;;;;;;;19.80;6.20;;;;;;;;;;5051383;28;20487;-75
2022/06/18 04:13:39;;;;;;;21.17;6.60;;;;;;;;;;5055981;28;20499;-73
2022/06/18 04:16:06;;;;;;;21.63;6.43;;;;;;;;;;5051579;28;21024;-74
2022/06/18 04:18:34;;;;;;;23.67;7.57;;;;;;;;;;5051517;28;20472;-73
2022/06/18 04:21:02;;;;;;;20.70;6.53;;;;;;;;;;5050890;28;20471;-72
2022/06/18 04:23:29;;;;;;;23.20;6.80;;;;;;;;;;5062384;28;20592;-74
2022/06/18 04:25:57;;;;;;;18.40;6.30;;;;;;;;;;5056090;28;20471;-74
2022/06/18 04:28:27;;;;;;;17.73;6.10;;;;;;;;;;5058758;28;20518;-73
2022/06/18 04:30:54;;;;;;;21.63;7.20;;;;;;;;;;5062861;28;20475;-71
2022/06/18 04:33:22;;;;;;;17.90;5.57;;;;;;;;;;5063264;28;20491;-71
2022/06/18 04:35:52;;;;;;;21.90;6.27;;;;;;;;;;5063079;28;20467;-72
2022/06/18 04:38:20;;;;;;;18.67;6.23;;;;;;;;;;5046246;28;20485;-74
2022/06/18 04:40:48;;;;;;;19.60;6.30;;;;;;;;;;5055118;28;20562;-71
2022/06/18 04:43:15;;;;;;;20.37;6.93;;;;;;;;;;5051085;28;20518;-71
2022/06/18 04:45:45;;;;;;;20.10;6.77;;;;;;;;;;5051025;28;21039;-70
2022/06/18 04:48:14;;;;;;;23.53;8.73;;;;;;;;;;5050858;28;20872;-70
2022/06/18 04:50:42;;;;;;;19.83;7.33;;;;;;;;;;5051096;28;20529;-71
2022/06/18 04:53:10;;;;;;;18.47;6.23;;;;;;;;;;5050372;28;20474;-70
2022/06/18 04:55:38;;;;;;;19.90;6.20;;;;;;;;;;5051259;28;20475;-71
2022/06/18 04:58:06;;;;;;;20.33;6.23;;;;;;;;;;5050977;28;20530;-70
2022/06/18 05:00:34;;;;;;;19.83;6.73;;;;;;;;;;5051161;28;20468;-73
2022/06/18 05:03:04;;;;;;;20.03;6.57;;;;;;;;;;5050569;28;20510;-74
2022/06/18 05:05:31;;;;;;;18.30;6.23;;;;;;;;;;5050223;28;20463;-70
2022/06/18 05:19:05;;;;;;;20.20;6.90;;;;;;;;;;5088024;28;21019;-71
2022/06/18 05:21:32;;;;;;;19.90;7.00;;;;;;;;;;5087582;28;21049;-72
2022/06/18 05:23:59;;;;;;;18.50;6.67;;;;;;;;;;5088017;28;20480;-74
2022/06/18 05:26:27;;;;;;;22.90;7.07;;;;;;;;;;5088226;28;20504;-73
2022/06/18 05:28:54;;;;;;;22.13;7.67;;;;;;;;;;5087998;28;20474;-72
2022/06/18 05:31:21;;;;;;;16.97;6.50;;;;;;;;;;5088134;28;20842;-72
2022/06/18 05:33:49;;;;;;;19.53;6.07;;;;;;;;;;5088143;28;20846;-72
2022/06/18 05:36:36;;;;;;;22.23;6.50;;;;;;;;;;5087857;28;20485;-72
2022/06/18 05:39:05;;;;;;;17.23;6.20;;;;;;;;;;5087791;28;20474;-72
2022/06/18 05:41:32;;;;;;;24.33;6.37;;;;;;;;;;5088409;28;20481;-71
2022/06/18 05:43:59;;;;;;;20.97;6.90;;;;;;;;;;5088000;28;20473;-71
2022/06/18 05:46:27;;;;;;;21.23;7.03;;;;;;;;;;5087311;28;20835;-71
2022/06/18 05:48:55;;;;;;;22.13;6.97;;;;;;;;;;5086610;28;21187;-71
2022/06/18 05:51:22;;;;;;;27.27;8.67;;;;;;;;;;5086306;28;20856;-72
2022/06/18 05:53:50;;;;;;;20.80;7.10;;;;;;;;;;5087152;28;20481;-72
2022/06/18 05:56:19;;;;;;;17.17;6.00;;;;;;;;;;5086642;28;20474;-71
2022/06/18 05:58:47;;;;;;;18.47;6.03;;;;;;;;;;5086561;28;20466;-71
2022/06/18 06:01:14;;;;;;;22.60;7.37;;;;;;;;;;5086849;28;20462;-73
2022/06/18 06:03:42;;;;;;;20.50;6.70;;;;;;;;;;5086753;28;20473;-74
2022/06/18 06:06:09;;;;;;;25.40;6.57;;;;;;;;;;5086163;28;20481;-75
2022/06/18 06:08:37;;;;;;;19.43;6.30;;;;;;;;;;5067906;28;21051;-75
2022/06/18 06:13:52;;;;;;;15.47;5.50;;;;;;;;;;5066279;28;20470;-75
2022/06/18 06:16:20;;;;;;;19.03;7.13;;;;;;;;;;5066041;28;20917;-72
2022/06/18 06:18:48;;;;;;;19.50;7.40;;;;;;;;;;5059384;28;20540;-71
2022/06/18 06:21:15;;;;;;;21.50;7.30;;;;;;;;;;5052558;28;20957;-71
2022/06/18 06:23:42;;;;;;;18.07;6.10;;;;;;;;;;5052984;28;20477;-71
2022/06/18 06:26:14;;;;;;;18.37;6.17;;;;;;;;;;5052674;28;20851;-71
2022/06/18 06:28:43;;;;;;;21.57;6.93;;;;;;;;;;5052744;28;20529;-73
2022/06/18 06:31:13;;;;;;;24.57;7.17;;;;;;;;;;5052858;28;20470;-73
2022/06/18 06:33:41;;;;;;;22.60;6.87;;;;;;;;;;5052805;28;20559;-72
2022/06/18 06:36:08;;;;;;;17.40;6.63;;;;;;;;;;5052024;28;20466;-72
2022/06/18 06:38:37;;;;;;;19.00;6.70;;;;;;;;;;5052659;28;20486;-72
2022/06/18 06:41:06;;;;;;;20.83;7.07;;;;;;;;;;5052337;28;20463;-72
2022/06/18 06:43:33;;;;;;;17.77;6.17;;;;;;;;;;5052498;28;20468;-73
2022/06/18 06:46:01;;;;;;;18.43;6.13;;;;;;;;;;5052396;28;20472;-71
2022/06/18 06:48:30;;;;;;;17.90;5.07;;;;;;;;;;5052227;28;20589;-71
2022/06/18 06:50:58;;;;;;;21.80;6.70;;;;;;;;;;5051693;28;20460;-73
2022/06/18 06:53:25;;;;;;;16.07;4.80;;;;;;;;;;5052504;28;20990;-74
2022/06/18 06:58:38;;;;;;;16.23;4.40;;;;;;;;;;5052312;28;20532;-75
2022/06/18 07:01:05;;;;;;;16.50;4.90;;;;;;;;;;5051981;28;20468;-74
2022/06/18 07:03:35;;;;;;;16.07;5.00;;;;;;;;;;5052164;28;20821;-75
2022/06/18 07:06:03;;;;;;;17.20;4.40;;;;;;;;;;5051371;28;20473;-75
2022/06/18 07:08:30;;;;;;;15.03;3.70;;;;;;;;;;5051617;28;20923;-75
2022/06/18 07:10:58;;;;;;;20.40;5.00;;;;;;;;;;5051750;28;20481;-76
2022/06/18 07:13:26;;;;;;;17.27;4.40;;;;;;;;;;5051791;28;20487;-75
2022/06/18 07:15:53;;;;;;;15.27;3.83;;;;;;;;;;5051620;28;20464;-74
2022/06/18 07:18:22;;;;;;;17.70;4.57;;;;;;;;;;5051703;28;20557;-75
2022/06/18 07:20:51;;;;;;;17.70;4.13;;;;;;;;;;5050973;28;20475;-73
2022/06/18 07:23:19;;;;;;;19.33;5.20;;;;;;;;;;5051686;28;20495;-72
2022/06/18 07:25:47;;;;;;;15.97;3.93;;;;;;;;;;5051653;28;20475;-74
2022/06/18 07:28:14;;;;;;;16.93;3.93;;;;;;;;;;5051617;28;20507;-75
2022/06/18 07:30:42;;;;;;;13.97;3.40;;;;;;;;;;5050510;28;21059;-73
2022/06/18 07:33:13;;;;;;;19.30;5.17;;;;;;;;;;5051642;28;20481;-75
2022/06/18 07:35:40;;;;;;;15.50;3.90;;;;;;;;;;5050989;28;20473;-75
2022/06/18 07:38:10;;;;;;;16.67;4.27;;;;;;;;;;5051328;28;20480;-75
2022/06/18 07:40:39;;;;;;;15.57;3.90;;;;;;;;;;5051457;28;20471;-75
2022/06/18 07:43:08;;;;;;;17.20;3.80;;;;;;;;;;5050916;28;20489;-75
2022/06/18 07:45:35;;;;;;;16.97;4.57;;;;;;;;;;5051291;28;21021;-75
2022/06/18 07:48:03;;;;;;;18.50;4.03;;;;;;;;;;5051023;28;20494;-75
2022/06/18 07:50:30;;;;;;;15.53;3.57;;;;;;;;;;5050772;28;20492;-75
2022/06/18 07:52:58;;;;;;;14.83;3.50;;;;;;;;;;5050822;28;20491;-75
2022/06/18 07:55:29;;;;;;;13.50;3.17;;;;;;;;;;5051033;28;20858;-75
2022/06/18 07:57:56;;;;;;;14.60;3.50;;;;;;;;;;5051045;28;20508;-73
2022/06/18 08:00:24;;;;;;;15.40;3.87;;;;;;;;;;5050730;28;20482;-74
2022/06/18 08:02:52;;;;;;;16.30;3.83;;;;;;;;;;5050885;28;20475;-75
2022/06/18 08:05:25;;;;;;;19.60;4.73;;;;;;;;;;5050287;28;20472;-75
2022/06/18 08:07:52;;;;;;;15.23;3.73;;;;;;;;;;5050905;28;20588;-74
2022/06/18 08:10:20;;;;;;;20.13;5.47;;;;;;;;;;5050776;28;20468;-73
2022/06/18 08:12:49;;;;;;;19.50;4.40;;;;;;;;;;5050708;28;20499;-75
2022/06/18 08:15:18;;;;;;;14.53;3.30;;;;;;;;;;5050606;28;20467;-73
2022/06/18 08:17:45;;;;;;;18.53;4.60;;;;;;;;;;5050911;28;20501;-75
2022/06/18 08:20:13;;;;;;;17.83;4.20;;;;;;;;;;5049947;28;21015;-74
2022/06/18 08:22:44;;;;;;;16.70;3.80;;;;;;;;;;5050720;28;20477;-73
2022/06/18 08:25:13;;;;;;;15.47;3.47;;;;;;;;;;5049960;28;21077;-72
2022/06/18 08:27:41;;;;;;;14.87;3.30;;;;;;;;;;5049841;28;20487;-72
2022/06/18 08:30:12;;;;;;;23.93;5.63;;;;;;;;;;5044260;28;21058;-73
2022/06/18 08:32:40;;;;;;;18.40;3.90;;;;;;;;;;5050505;28;20472;-76
2022/06/18 08:35:07;;;;;;;18.30;4.23;;;;;;;;;;5050137;28;20477;-75
2022/06/18 08:37:35;;;;;;;17.87;4.63;;;;;;;;;;5050380;28;20488;-78
2022/06/18 08:40:02;;;;;;;17.77;4.57;;;;;;;;;;5045628;28;20474;-75
2022/06/18 08:42:44;;;;;;;16.83;4.20;;;;;;;;;;5050345;28;20468;-76
2022/06/18 08:45:26;;;;;;;17.20;4.17;;;;;;;;;;5050483;28;20466;-76
2022/06/18 08:48:00;;;;;;;16.80;3.80;;;;;;;;;;5050408;28;21031;-75
2022/06/18 08:50:34;;;;;;;14.30;3.27;;;;;;;;;;5049929;28;20467;-73
2022/06/18 08:53:12;;;;;;;14.10;3.03;;;;;;;;;;5050256;28;20737;-74
2022/06/18 08:55:42;;;;;;;14.20;3.63;;;;;;;;;;5050068;28;20471;-75
2022/06/18 08:58:17;;;;;;;13.90;3.40;;;;;;;;;;5050210;28;20485;-75
2022/06/18 09:00:49;;;;;;;15.80;3.13;;;;;;;;;;5049966;28;20479;-75
2022/06/18 09:03:21;;;;;;;16.33;3.90;;;;;;;;;;5050237;28;20466;-75
2022/06/18 09:05:53;;;;;;;18.70;4.10;;;;;;;;;;5049623;28;20477;-75
2022/06/18 09:08:37;;;;;;;15.67;3.13;;;;;;;;;;5046421;28;20498;-74
2022/06/18 09:11:20;;;;;;;20.73;3.07;;;;;;;;;;5048692;28;21888;-74
2022/06/18 09:13:50;;;;;;;16.07;3.50;;;;;;;;;;5049796;28;21044;-75
2022/06/18 09:16:21;;;;;;;14.80;3.40;;;;;;;;;;5049377;28;20830;-74
2022/06/18 09:18:52;;;;;;;20.47;4.10;;;;;;;;;;5049628;28;20573;-75
2022/06/18 09:21:22;;;;;;;16.70;3.53;;;;;;;;;;5049217;28;20550;-75
2022/06/18 09:23:52;;;;;;;19.00;5.17;;;;;;;;;;5050076;28;21016;-75
2022/06/18 09:26:22;;;;;;;15.27;3.70;;;;;;;;;;5049704;28;20470;-75
2022/06/18 09:28:51;;;;;;;15.80;4.00;;;;;;;;;;5049749;28;20506;-75
2022/06/18 09:31:24;;;;;;;13.47;3.00;;;;;;;;;;5049877;28;20481;-75
2022/06/18 09:33:55;;;;;;;17.17;3.20;;;;;;;;;;5049627;28;20937;-73
2022/06/18 09:36:24;;;;;;;16.37;4.53;;;;;;;;;;5049787;28;21028;-75
2022/06/18 09:38:54;;;;;;;20.50;6.83;;;;;;;;;;5049754;28;20485;-74
2022/06/18 09:41:24;;;;;;;43.83;21.00;;;;;;;;;;5050120;28;20459;-74
2022/06/18 09:43:56;;;;;;;49.60;24.63;;;;;;;;;;5049884;28;21326;-75
2022/06/18 09:46:27;;;;;;;40.80;13.53;;;;;;;;;;5049870;28;21022;-74
2022/06/18 09:48:54;;;;;;;32.57;11.40;;;;;;;;;;5048783;28;20511;-74
2022/06/18 09:51:26;;;;;;;22.60;6.93;;;;;;;;;;5048301;28;20461;-75
2022/06/18 09:53:54;;;;;;;17.47;4.77;;;;;;;;;;5050803;28;20503;-75
2022/06/18 09:56:25;;;;;;;17.10;4.30;;;;;;;;;;5052121;28;20444;-74
2022/06/18 09:58:55;;;;;;;19.90;5.03;;;;;;;;;;5053443;28;20435;-74
2022/06/18 10:01:26;;;;;;;16.60;3.77;;;;;;;;;;5053866;28;20429;-75
2022/06/18 10:06:55;;;;;;;18.90;4.40;;;;;;;;;;5051451;28;20568;-75
2022/06/18 10:09:26;;;;;;;14.77;3.13;;;;;;;;;;5051789;28;20475;-74
2022/06/18 10:11:53;;;;;;;17.23;3.80;;;;;;;;;;5051844;28;20444;-74
2022/06/18 10:14:22;;;;;;;18.80;3.37;;;;;;;;;;5052113;28;20464;-75
2022/06/18 10:16:55;;;;;;;17.70;4.53;;;;;;;;;;5051602;28;20444;-75
2022/06/18 10:19:29;;;;;;;14.17;3.03;;;;;;;;;;5052652;28;20493;-75
2022/06/18 10:21:59;;;;;;;14.97;3.40;;;;;;;;;;5053609;28;20931;-75
2022/06/18 10:24:30;;;;;;;14.30;2.80;;;;;;;;;;5053433;28;20939;-74
2022/06/18 10:27:02;;;;;;;17.40;3.23;;;;;;;;;;5053284;28;20451;-75
2022/06/18 10:29:34;;;;;;;18.60;3.60;;;;;;;;;;5053379;28;20483;-74
2022/06/18 10:32:12;;;;;;;13.80;2.70;;;;;;;;;;5053787;28;20921;-74
2022/06/18 10:34:48;;;;;;;15.00;3.23;;;;;;;;;;5053275;28;20447;-75
2022/06/18 10:37:20;;;;;;;13.50;2.77;;;;;;;;;;5053548;28;20446;-74
2022/06/18 10:39:52;;;;;;;13.57;3.70;;;;;;;;;;5053262;28;20455;-74
2022/06/18 10:42:25;;;;;;;21.80;3.03;;;;;;;;;;5053310;28;20442;-75
2022/06/18 10:44:59;;;;;;;17.90;3.73;;;;;;;;;;5053047;28;20442;-75
2022/06/18 10:47:32;;;;;;;15.60;2.97;;;;;;;;;;5053223;28;20868;-74
2022/06/18 10:50:03;;;;;;;14.07;2.87;;;;;;;;;;5053073;28;20486;-75
2022/06/18 10:52:30;;;;;;;15.60;2.80;;;;;;;;;;5053333;28;20442;-75
2022/06/18 10:55:06;;;;;;;15.03;3.30;;;;;;;;;;5052741;28;20439;-74
2022/06/18 10:57:33;;;;;;;13.47;2.80;;;;;;;;;;5052949;28;20436;-75
2022/06/18 11:00:09;;;;;;;13.80;3.33;;;;;;;;;;5053135;28;20447;-74
2022/06/18 11:02:38;;;;;;;15.87;3.60;;;;;;;;;;5052998;28;20435;-75
2022/06/18 11:05:16;;;;;;;14.20;3.30;;;;;;;;;;5052661;28;20454;-75
2022/06/18 11:07:49;;;;;;;12.90;2.50;;;;;;;;;;5052688;28;20584;-74
2022/06/18 11:10:22;;;;;;;17.60;2.80;;;;;;;;;;5052693;28;20473;-75
2022/06/18 11:12:53;;;;;;;17.23;3.33;;;;;;;;;;5052368;28;20940;-75
2022/06/18 11:15:25;;;;;;;17.27;3.57;;;;;;;;;;5052630;28;20427;-75
2022/06/18 11:17:53;;;;;;;15.87;3.63;;;;;;;;;;5052222;28;20475;-74
2022/06/18 11:20:23;;;;;;;17.03;3.00;;;;;;;;;;5052487;28;20454;-75
2022/06/18 11:22:53;;;;;;;14.43;2.70;;;;;;;;;;5052226;28;20454;-75
2022/06/18 11:25:26;;;;;;;13.07;2.83;;;;;;;;;;5052375;28;20524;-75
2022/06/18 11:27:54;;;;;;;15.47;3.33;;;;;;;;;;5052591;28;20436;-75
2022/06/18 11:30:26;;;;;;;19.70;3.63;;;;;;;;;;5052322;28;20486;-74
2022/06/18 11:32:53;;;;;;;18.77;4.17;;;;;;;;;;5052107;28;20447;-75
2022/06/18 11:35:24;;;;;;;15.97;3.10;;;;;;;;;;5052151;28;20455;-74
2022/06/18 11:37:59;;;;;;;13.53;2.67;;;;;;;;;;5052200;28;20970;-75
2022/06/18 11:40:27;;;;;;;16.80;3.47;;;;;;;;;;5052125;28;20818;-75
2022/06/18 11:42:56;;;;;;;15.83;3.20;;;;;;;;;;5051785;28;20786;-75
2022/06/18 11:45:38;;;;;;;13.80;2.23;;;;;;;;;;5051998;28;20511;-75
2022/06/18 11:48:07;;;;;;;16.50;2.43;;;;;;;;;;5052042;28;20985;-75
2022/06/18 11:50:41;;;;;;;15.53;2.97;;;;;;;;;;5051930;28;20475;-74
2022/06/18 11:53:12;;;;;;;14.07;2.43;;;;;;;;;;5051934;28;20442;-75
2022/06/18 11:55:41;;;;;;;16.07;2.70;;;;;;;;;;5051853;28;20447;-75
2022/06/18 11:58:13;;;;;;;13.90;2.30;;;;;;;;;;5051685;28;20452;-75
2022/06/18 12:00:46;;;;;;;14.30;2.20;;;;;;;;;;5051793;28;20470;-74
2022/06/18 12:03:22;;;;;;;13.90;2.40;;;;;;;;;;5051611;28;21049;-74
2022/06/18 12:05:53;;;;;;;14.97;2.40;;;;;;;;;;5051632;28;20454;-75
2022/06/18 12:08:22;;;;;;;14.17;2.50;;;;;;;;;;5051403;28;20459;-75
2022/06/18 12:10:50;;;;;;;14.33;3.00;;;;;;;;;;5051348;28;20432;-74
2022/06/18 12:13:23;;;;;;;13.30;2.47;;;;;;;;;;5051707;28;20452;-74
2022/06/18 12:15:53;;;;;;;13.90;2.40;;;;;;;;;;5051518;28;20441;-75
2022/06/18 12:18:25;;;;;;;14.30;2.50;;;;;;;;;;5051256;28;20490;-75
2022/06/18 12:21:02;;;;;;;15.60;3.60;;;;;;;;;;5051234;28;20448;-74
2022/06/18 12:23:34;;;;;;;13.80;2.67;;;;;;;;;;5051674;28;21033;-75
2022/06/18 12:26:04;;;;;;;13.40;2.70;;;;;;;;;;5051564;28;20797;-74
2022/06/18 12:28:35;;;;;;;15.43;2.37;;;;;;;;;;5051271;28;20445;-75
2022/06/18 12:31:06;;;;;;;13.57;2.50;;;;;;;;;;5051263;28;20444;-75
2022/06/18 12:33:46;;;;;;;13.07;2.70;;;;;;;;;;5051328;28;20467;-75
2022/06/18 12:36:18;;;;;;;17.60;3.07;;;;;;;;;;5051751;28;20434;-75
2022/06/18 12:38:53;;;;;;;12.90;2.90;;;;;;;;;;5051051;28;20467;-75
2022/06/18 12:41:23;;;;;;;14.80;2.70;;;;;;;;;;5051211;28;20437;-74
2022/06/18 12:43:54;;;;;;;14.17;2.67;;;;;;;;;;5051102;28;20441;-74
2022/06/18 12:46:25;;;;;;;13.00;2.60;;;;;;;;;;5051140;28;20940;-75
2022/06/18 12:49:01;;;;;;;16.57;3.50;;;;;;;;;;5051054;28;20484;-74
2022/06/18 12:51:33;;;;;;;13.20;2.70;;;;;;;;;;5051304;28;20497;-74
2022/06/18 12:54:16;;;;;;;17.03;3.10;;;;;;;;;;5051147;28;20563;-74
2022/06/18 12:56:47;;;;;;;16.77;3.10;;;;;;;;;;5050220;28;20846;-74
2022/06/18 12:59:18;;;;;;;16.10;3.30;;;;;;;;;;5050940;28;20442;-74
2022/06/18 13:01:51;;;;;;;15.87;3.03;;;;;;;;;;5051080;28;20433;-75
2022/06/18 13:04:33;;;;;;;14.93;3.23;;;;;;;;;;5050868;28;20434;-75
2022/06/18 13:07:07;;;;;;;15.63;3.20;;;;;;;;;;5045727;28;20513;-75
2022/06/18 13:09:39;;;;;;;16.63;3.17;;;;;;;;;;5050957;28;20840;-74
2022/06/18 13:12:13;;;;;;;14.43;3.13;;;;;;;;;;5050862;28;20964;-73
2022/06/18 13:14:46;;;;;;;12.77;2.67;;;;;;;;;;5050843;28;20437;-74
2022/06/18 13:17:16;;;;;;;15.27;3.23;;;;;;;;;;5050669;28;20472;-74
2022/06/18 13:19:46;;;;;;;17.63;2.73;;;;;;;;;;5050769;28;20437;-74
2022/06/18 13:22:15;;;;;;;13.30;2.37;;;;;;;;;;5050886;28;20437;-74
2022/06/18 13:30:19;;;;;;;12.50;2.37;;;;;;;;;;5054309;28;20511;-74
2022/06/18 13:32:48;;;;;;;13.87;2.30;;;;;;;;;;5054710;28;20450;-75
2022/06/18 13:35:18;;;;;;;12.70;2.50;;;;;;;;;;5054702;28;20440;-75
2022/06/18 13:37:50;;;;;;;13.73;2.10;;;;;;;;;;5054578;28;20974;-74
2022/06/18 13:40:23;;;;;;;16.00;2.30;;;;;;;;;;5054568;28;20796;-74
2022/06/18 13:42:52;;;;;;;12.07;2.37;;;;;;;;;;5054540;28;20523;-74
2022/06/18 13:45:30;;;;;;;13.97;2.17;;;;;;;;;;5054459;28;20440;-73
2022/06/18 13:48:03;;;;;;;12.10;2.00;;;;;;;;;;5054666;28;20427;-74
2022/06/18 13:50:34;;;;;;;14.10;2.73;;;;;;;;;;5054293;28;20479;-74
2022/06/18 13:53:03;;;;;;;15.43;2.87;;;;;;;;;;5054353;28;20538;-74
2022/06/18 13:55:33;;;;;;;12.97;2.40;;;;;;;;;;5054253;28;20442;-73
2022/06/18 13:58:01;;;;;;;15.73;2.10;;;;;;;;;;5054156;28;20436;-73
2022/06/18 14:00:30;;;;;;;14.00;2.67;;;;;;;;;;5054196;28;20432;-73
2022/06/18 14:03:00;;;;;;;16.33;3.17;;;;;;;;;;5053935;28;20805;-73
2022/06/18 14:05:46;;;;;;;13.63;2.40;;;;;;;;;;5054335;28;20432;-74
2022/06/18 14:08:28;;;;;;;13.40;2.50;;;;;;;;;;5053934;28;21053;-74
2022/06/18 14:10:56;;;;;;;17.20;3.50;;;;;;;;;;5053595;28;20576;-73
2022/06/18 14:13:25;;;;;;;12.40;2.20;;;;;;;;;;5053849;28;20525;-73
2022/06/18 14:15:58;;;;;;;13.70;2.40;;;;;;;;;;5053861;28;20603;-74
2022/06/18 14:18:26;;;;;;;13.10;2.60;;;;;;;;;;5053921;28;20478;-74
2022/06/18 14:20:56;;;;;;;16.50;3.43;;;;;;;;;;5053719;28;20538;-73
2022/06/18 14:23:30;;;;;;;13.00;2.30;;;;;;;;;;5053854;28;20450;-74
2022/06/18 14:26:01;;;;;;;13.57;2.53;;;;;;;;;;5053640;28;20445;-73
2022/06/18 14:28:30;;;;;;;15.23;3.00;;;;;;;;;;5053894;28;20443;-74
2022/06/18 14:31:01;;;;;;;16.10;2.90;;;;;;;;;;5053251;28;20478;-73
2022/06/18 14:33:34;;;;;;;14.07;2.90;;;;;;;;;;5053593;28;20443;-73
2022/06/18 14:36:06;;;;;;;12.87;2.03;;;;;;;;;;5053522;28;20519;-74
2022/06/18 14:38:37;;;;;;;13.10;2.10;;;;;;;;;;5053519;28;20529;-75
2022/06/18 14:43:57;;;;;;;13.00;2.87;;;;;;;;;;5053537;28;20444;-74
2022/06/18 14:46:30;;;;;;;13.00;2.27;;;;;;;;;;5053363;28;20440;-74
2022/06/18 14:49:06;;;;;;;13.60;2.70;;;;;;;;;;5053115;28;20952;-74
2022/06/18 14:52:00;;;;;;;12.73;2.40;;;;;;;;;;5053314;28;20937;-74
2022/06/18 14:54:55;;;;;;;14.77;2.10;;;;;;;;;;5053296;28;20477;-74
2022/06/18 14:57:41;;;;;;;28.17;3.30;;;;;;;;;;5053094;28;21029;-73
2022/06/18 15:00:14;;;;;;;12.90;2.87;;;;;;;;;;5053206;28;20448;-74
2022/06/18 15:02:44;;;;;;;14.43;2.60;;;;;;;;;;5053190;28;20818;-74
2022/06/18 15:05:17;;;;;;;13.57;2.53;;;;;;;;;;5053016;28;20453;-74
2022/06/18 15:07:45;;;;;;;12.83;2.77;;;;;;;;;;5052483;28;20455;-74
2022/06/18 15:10:15;;;;;;;16.77;3.70;;;;;;;;;;5053041;28;20892;-74
2022/06/18 15:12:44;;;;;;;13.90;2.63;;;;;;;;;;5052767;28;20796;-73
2022/06/18 15:15:20;;;;;;;14.60;2.53;;;;;;;;;;5052905;28;20439;-73
2022/06/18 15:17:57;;;;;;;12.83;2.20;;;;;;;;;;5052836;28;20486;-73
2022/06/18 15:20:46;;;;;;;15.27;2.37;;;;;;;;;;5052947;28;20515;-74
2022/06/18 15:23:29;;;;;;;16.07;4.83;;;;;;;;;;5052671;28;20450;-74